sensor_id;sensor_type;location;lat;lon;timestamp;P1;durP1;ratioP1;P2;durP2;ratioP2
39956;SDS011;48483;44.640;7.494;2023-03-01T00:00:04;12.77;;;9.73;;
39956;SDS011;48483;44.640;7.494;2023-03-01T00:02:37;14.57;;;10.07;;
39956;SDS011;48483;44.640;7.494;2023-03-01T00:05:04;15.48;;;11.48;;
39956;SDS011;48483;44.640;7.494;2023-03-01T00:07:34;13.88;;;10.52;;
39956;SDS011;48483;44.640;7.494;2023-03-01T00:10:01;14.88;;;11.25;;
39956;SDS011;48483;44.640;7.494;2023-03-01T00:12:27;16.20;;;11.05;;
39956;SDS011;48483;44.640;7.494;2023-03-01T00:14:54;17.33;;;11.93;;
39956;SDS011;48483;44.640;7.494;2023-03-01T00:17:20;15.48;;;11.98;;
39956;SDS011;48483;44.640;7.494;2023-03-01T00:19:47;17.23;;;13.00;;
39956;SDS011;48483;44.640;7.494;2023-03-01T00:22:13;15.20;;;11.20;;
39956;SDS011;48483;44.640;7.494;2023-03-01T00:24:41;16.17;;;11.23;;
39956;SDS011;48483;44.640;7.494;2023-03-01T00:27:08;13.93;;;10.38;;
39956;SDS011;48483;44.640;7.494;2023-03-01T00:29:34;17.55;;;12.60;;
39956;SDS011;48483;44.640;7.494;2023-03-01T00:32:01;19.50;;;12.48;;
39956;SDS011;48483;44.640;7.494;2023-03-01T00:34:27;14.88;;;11.57;;
39956;SDS011;48483;44.640;7.494;2023-03-01T00:36:54;18.52;;;12.95;;
39956;SDS011;48483;44.640;7.494;2023-03-01T00:39:21;16.63;;;11.63;;
39956;SDS011;48483;44.640;7.494;2023-03-01T00:41:48;19.15;;;12.82;;
39956;SDS011;48483;44.640;7.494;2023-03-01T00:44:15;16.35;;;12.00;;
39956;SDS011;48483;44.640;7.494;2023-03-01T00:46:42;16.05;;;11.57;;
39956;SDS011;48483;44.640;7.494;2023-03-01T00:49:08;16.88;;;11.75;;
39956;SDS011;48483;44.640;7.494;2023-03-01T00:51:35;18.20;;;12.48;;
39956;SDS011;48483;44.640;7.494;2023-03-01T00:54:02;16.23;;;11.82;;
39956;SDS011;48483;44.640;7.494;2023-03-01T00:56:29;18.80;;;11.10;;
39956;SDS011;48483;44.640;7.494;2023-03-01T00:58:57;16.35;;;11.50;;
39956;SDS011;48483;44.640;7.494;2023-03-01T01:01:25;13.77;;;10.10;;
39956;SDS011;48483;44.640;7.494;2023-03-01T01:03:55;15.57;;;10.93;;
39956;SDS011;48483;44.640;7.494;2023-03-01T01:06:24;14.65;;;11.00;;
39956;SDS011;48483;44.640;7.494;2023-03-01T01:08:52;15.00;;;10.38;;
39956;SDS011;48483;44.640;7.494;2023-03-01T01:11:20;15.30;;;10.32;;
39956;SDS011;48483;44.640;7.494;2023-03-01T01:13:48;16.67;;;10.43;;
39956;SDS011;48483;44.640;7.494;2023-03-01T01:16:17;12.98;;;9.70;;
39956;SDS011;48483;44.640;7.494;2023-03-01T01:18:45;14.57;;;10.43;;
39956;SDS011;48483;44.640;7.494;2023-03-01T01:21:13;13.15;;;9.90;;
39956;SDS011;48483;44.640;7.494;2023-03-01T01:23:41;11.85;;;8.88;;
39956;SDS011;48483;44.640;7.494;2023-03-01T01:26:09;11.23;;;7.75;;
39956;SDS011;48483;44.640;7.494;2023-03-01T01:28:37;10.80;;;8.45;;
39956;SDS011;48483;44.640;7.494;2023-03-01T01:31:03;12.43;;;8.70;;
39956;SDS011;48483;44.640;7.494;2023-03-01T01:33:31;12.32;;;8.80;;
39956;SDS011;48483;44.640;7.494;2023-03-01T01:35:59;14.00;;;9.60;;
39956;SDS011;48483;44.640;7.494;2023-03-01T01:38:25;12.00;;;8.13;;
39956;SDS011;48483;44.640;7.494;2023-03-01T01:40:52;15.65;;;9.90;;
39956;SDS011;48483;44.640;7.494;2023-03-01T01:43:19;11.40;;;7.72;;
39956;SDS011;48483;44.640;7.494;2023-03-01T01:45:48;12.50;;;8.82;;
39956;SDS011;48483;44.640;7.494;2023-03-01T01:48:19;10.43;;;7.45;;
39956;SDS011;48483;44.640;7.494;2023-03-01T01:50:50;11.27;;;8.05;;
39956;SDS011;48483;44.640;7.494;2023-03-01T01:53:22;10.88;;;7.35;;
39956;SDS011;48483;44.640;7.494;2023-03-01T01:55:51;11.20;;;7.82;;
39956;SDS011;48483;44.640;7.494;2023-03-01T01:58:22;11.18;;;7.38;;
39956;SDS011;48483;44.640;7.494;2023-03-01T02:00:52;10.93;;;7.22;;
39956;SDS011;48483;44.640;7.494;2023-03-01T02:03:20;13.55;;;8.63;;
39956;SDS011;48483;44.640;7.494;2023-03-01T02:05:53;10.15;;;7.45;;
39956;SDS011;48483;44.640;7.494;2023-03-01T02:08:25;11.43;;;7.80;;
39956;SDS011;48483;44.640;7.494;2023-03-01T02:10:55;12.23;;;8.70;;
39956;SDS011;48483;44.640;7.494;2023-03-01T02:13:23;11.48;;;8.43;;
39956;SDS011;48483;44.640;7.494;2023-03-01T02:15:49;11.20;;;8.07;;
39956;SDS011;48483;44.640;7.494;2023-03-01T02:18:17;13.55;;;8.38;;
39956;SDS011;48483;44.640;7.494;2023-03-01T02:20:49;12.38;;;8.23;;
39956;SDS011;48483;44.640;7.494;2023-03-01T02:23:24;10.05;;;7.45;;
39956;SDS011;48483;44.640;7.494;2023-03-01T02:25:54;10.75;;;7.70;;
39956;SDS011;48483;44.640;7.494;2023-03-01T02:28:27;13.10;;;8.30;;
39956;SDS011;48483;44.640;7.494;2023-03-01T02:30:56;13.05;;;8.30;;
39956;SDS011;48483;44.640;7.494;2023-03-01T02:33:42;12.63;;;8.10;;
39956;SDS011;48483;44.640;7.494;2023-03-01T02:36:10;13.38;;;8.63;;
39956;SDS011;48483;44.640;7.494;2023-03-01T02:38:40;14.93;;;9.43;;
39956;SDS011;48483;44.640;7.494;2023-03-01T02:41:08;12.52;;;8.63;;
39956;SDS011;48483;44.640;7.494;2023-03-01T02:43:38;11.30;;;8.45;;
39956;SDS011;48483;44.640;7.494;2023-03-01T02:46:05;11.02;;;7.55;;
39956;SDS011;48483;44.640;7.494;2023-03-01T02:48:40;13.38;;;8.30;;
39956;SDS011;48483;44.640;7.494;2023-03-01T02:51:10;12.10;;;8.35;;
39956;SDS011;48483;44.640;7.494;2023-03-01T02:53:53;11.20;;;8.63;;
39956;SDS011;48483;44.640;7.494;2023-03-01T02:56:27;14.00;;;9.73;;
39956;SDS011;48483;44.640;7.494;2023-03-01T02:58:56;11.60;;;8.77;;
39956;SDS011;48483;44.640;7.494;2023-03-01T03:01:28;14.18;;;9.57;;
39956;SDS011;48483;44.640;7.494;2023-03-01T03:04:05;11.88;;;8.77;;
39956;SDS011;48483;44.640;7.494;2023-03-01T03:06:33;12.45;;;8.95;;
39956;SDS011;48483;44.640;7.494;2023-03-01T03:09:00;13.13;;;9.30;;
39956;SDS011;48483;44.640;7.494;2023-03-01T03:11:27;13.95;;;9.43;;
39956;SDS011;48483;44.640;7.494;2023-03-01T03:13:54;12.77;;;10.57;;
39956;SDS011;48483;44.640;7.494;2023-03-01T03:16:23;13.30;;;8.27;;
39956;SDS011;48483;44.640;7.494;2023-03-01T03:18:50;10.52;;;7.90;;
39956;SDS011;48483;44.640;7.494;2023-03-01T03:21:17;14.52;;;8.82;;
39956;SDS011;48483;44.640;7.494;2023-03-01T03:23:43;12.73;;;8.45;;
39956;SDS011;48483;44.640;7.494;2023-03-01T03:26:10;12.68;;;8.27;;
39956;SDS011;48483;44.640;7.494;2023-03-01T03:28:39;10.85;;;7.70;;
39956;SDS011;48483;44.640;7.494;2023-03-01T03:31:07;11.88;;;8.48;;
39956;SDS011;48483;44.640;7.494;2023-03-01T03:33:34;10.18;;;7.50;;
39956;SDS011;48483;44.640;7.494;2023-03-01T03:36:00;10.75;;;7.82;;
39956;SDS011;48483;44.640;7.494;2023-03-01T03:38:27;10.27;;;7.20;;
39956;SDS011;48483;44.640;7.494;2023-03-01T03:40:59;10.48;;;8.00;;
39956;SDS011;48483;44.640;7.494;2023-03-01T03:43:28;10.48;;;6.57;;
39956;SDS011;48483;44.640;7.494;2023-03-01T03:45:56;12.25;;;7.68;;
39956;SDS011;48483;44.640;7.494;2023-03-01T03:48:25;9.93;;;6.88;;
39956;SDS011;48483;44.640;7.494;2023-03-01T03:50:52;10.98;;;7.15;;
39956;SDS011;48483;44.640;7.494;2023-03-01T03:53:20;11.30;;;7.22;;
39956;SDS011;48483;44.640;7.494;2023-03-01T03:55:48;9.63;;;6.88;;
39956;SDS011;48483;44.640;7.494;2023-03-01T03:58:15;10.88;;;8.13;;
39956;SDS011;48483;44.640;7.494;2023-03-01T04:00:45;10.60;;;7.43;;
39956;SDS011;48483;44.640;7.494;2023-03-01T04:03:14;13.73;;;8.65;;
39956;SDS011;48483;44.640;7.494;2023-03-01T04:05:43;11.02;;;8.15;;
39956;SDS011;48483;44.640;7.494;2023-03-01T04:08:10;10.40;;;7.57;;
39956;SDS011;48483;44.640;7.494;2023-03-01T04:10:38;10.48;;;8.38;;
39956;SDS011;48483;44.640;7.494;2023-03-01T04:13:07;9.88;;;7.53;;
39956;SDS011;48483;44.640;7.494;2023-03-01T04:15:37;13.70;;;7.95;;
39956;SDS011;48483;44.640;7.494;2023-03-01T04:18:04;10.10;;;6.95;;
39956;SDS011;48483;44.640;7.494;2023-03-01T04:20:32;12.00;;;8.35;;
39956;SDS011;48483;44.640;7.494;2023-03-01T04:23:03;11.75;;;8.80;;
39956;SDS011;48483;44.640;7.494;2023-03-01T04:25:39;12.02;;;8.65;;
39956;SDS011;48483;44.640;7.494;2023-03-01T04:28:07;11.23;;;8.60;;
39956;SDS011;48483;44.640;7.494;2023-03-01T04:30:35;13.25;;;8.52;;
39956;SDS011;48483;44.640;7.494;2023-03-01T04:33:02;12.68;;;8.43;;
39956;SDS011;48483;44.640;7.494;2023-03-01T04:35:29;9.98;;;7.47;;
39956;SDS011;48483;44.640;7.494;2023-03-01T04:37:56;11.52;;;8.43;;
39956;SDS011;48483;44.640;7.494;2023-03-01T04:40:24;11.52;;;7.93;;
39956;SDS011;48483;44.640;7.494;2023-03-01T04:42:51;10.68;;;7.45;;
39956;SDS011;48483;44.640;7.494;2023-03-01T04:45:17;10.80;;;7.85;;
39956;SDS011;48483;44.640;7.494;2023-03-01T04:47:45;12.25;;;8.05;;
39956;SDS011;48483;44.640;7.494;2023-03-01T04:50:13;11.32;;;7.80;;
39956;SDS011;48483;44.640;7.494;2023-03-01T04:52:44;11.57;;;8.95;;
39956;SDS011;48483;44.640;7.494;2023-03-01T04:55:11;13.05;;;8.75;;
39956;SDS011;48483;44.640;7.494;2023-03-01T04:57:40;13.18;;;9.00;;
39956;SDS011;48483;44.640;7.494;2023-03-01T05:00:09;12.43;;;9.40;;
39956;SDS011;48483;44.640;7.494;2023-03-01T05:02:49;14.98;;;9.40;;
39956;SDS011;48483;44.640;7.494;2023-03-01T05:05:19;13.40;;;9.38;;
39956;SDS011;48483;44.640;7.494;2023-03-01T05:07:47;11.50;;;8.13;;
39956;SDS011;48483;44.640;7.494;2023-03-01T05:10:14;12.20;;;8.73;;
39956;SDS011;48483;44.640;7.494;2023-03-01T05:12:42;12.82;;;8.63;;
39956;SDS011;48483;44.640;7.494;2023-03-01T05:15:09;12.70;;;9.20;;
39956;SDS011;48483;44.640;7.494;2023-03-01T05:17:36;12.60;;;8.52;;
39956;SDS011;48483;44.640;7.494;2023-03-01T05:20:03;11.88;;;9.05;;
39956;SDS011;48483;44.640;7.494;2023-03-01T05:22:34;10.32;;;7.85;;
39956;SDS011;48483;44.640;7.494;2023-03-01T05:25:01;11.15;;;8.77;;
39956;SDS011;48483;44.640;7.494;2023-03-01T05:27:28;10.95;;;8.13;;
39956;SDS011;48483;44.640;7.494;2023-03-01T05:29:56;14.93;;;9.15;;
39956;SDS011;48483;44.640;7.494;2023-03-01T05:32:23;11.70;;;8.25;;
39956;SDS011;48483;44.640;7.494;2023-03-01T05:34:49;13.63;;;9.57;;
39956;SDS011;48483;44.640;7.494;2023-03-01T05:37:18;18.25;;;8.60;;
39956;SDS011;48483;44.640;7.494;2023-03-01T05:39:45;13.82;;;9.45;;
39956;SDS011;48483;44.640;7.494;2023-03-01T05:42:11;13.18;;;9.02;;
39956;SDS011;48483;44.640;7.494;2023-03-01T05:44:38;15.25;;;9.48;;
39956;SDS011;48483;44.640;7.494;2023-03-01T05:47:06;13.05;;;8.88;;
39956;SDS011;48483;44.640;7.494;2023-03-01T05:49:32;14.80;;;9.07;;
39956;SDS011;48483;44.640;7.494;2023-03-01T05:51:59;12.48;;;8.65;;
39956;SDS011;48483;44.640;7.494;2023-03-01T05:54:26;13.68;;;9.57;;
39956;SDS011;48483;44.640;7.494;2023-03-01T05:56:52;13.73;;;9.45;;
39956;SDS011;48483;44.640;7.494;2023-03-01T05:59:20;14.95;;;10.38;;
39956;SDS011;48483;44.640;7.494;2023-03-01T06:01:46;11.18;;;8.93;;
39956;SDS011;48483;44.640;7.494;2023-03-01T06:04:14;17.52;;;10.32;;
39956;SDS011;48483;44.640;7.494;2023-03-01T06:06:41;19.42;;;10.80;;
39956;SDS011;48483;44.640;7.494;2023-03-01T06:09:07;20.92;;;10.25;;
39956;SDS011;48483;44.640;7.494;2023-03-01T06:11:36;17.25;;;10.43;;
39956;SDS011;48483;44.640;7.494;2023-03-01T06:14:03;15.15;;;9.80;;
39956;SDS011;48483;44.640;7.494;2023-03-01T06:16:30;12.63;;;9.10;;
39956;SDS011;48483;44.640;7.494;2023-03-01T06:18:56;16.52;;;9.05;;
39956;SDS011;48483;44.640;7.494;2023-03-01T06:21:24;27.08;;;8.85;;
39956;SDS011;48483;44.640;7.494;2023-03-01T06:23:51;16.23;;;8.95;;
39956;SDS011;48483;44.640;7.494;2023-03-01T06:26:17;14.45;;;10.00;;
39956;SDS011;48483;44.640;7.494;2023-03-01T06:28:44;15.77;;;9.43;;
39956;SDS011;48483;44.640;7.494;2023-03-01T06:31:11;15.18;;;9.18;;
39956;SDS011;48483;44.640;7.494;2023-03-01T06:33:38;14.60;;;8.20;;
39956;SDS011;48483;44.640;7.494;2023-03-01T06:36:05;11.57;;;8.45;;
39956;SDS011;48483;44.640;7.494;2023-03-01T06:38:33;20.08;;;8.80;;
39956;SDS011;48483;44.640;7.494;2023-03-01T06:41:00;20.25;;;9.75;;
39956;SDS011;48483;44.640;7.494;2023-03-01T06:43:27;15.93;;;9.85;;
39956;SDS011;48483;44.640;7.494;2023-03-01T06:45:54;27.02;;;10.32;;
39956;SDS011;48483;44.640;7.494;2023-03-01T06:48:20;16.27;;;8.63;;
39956;SDS011;48483;44.640;7.494;2023-03-01T06:50:47;13.70;;;9.27;;
39956;SDS011;48483;44.640;7.494;2023-03-01T06:53:13;14.45;;;9.98;;
39956;SDS011;48483;44.640;7.494;2023-03-01T06:55:41;16.23;;;9.52;;
39956;SDS011;48483;44.640;7.494;2023-03-01T06:58:08;15.25;;;9.38;;
39956;SDS011;48483;44.640;7.494;2023-03-01T07:00:36;13.70;;;9.85;;
39956;SDS011;48483;44.640;7.494;2023-03-01T07:03:02;18.08;;;9.98;;
39956;SDS011;48483;44.640;7.494;2023-03-01T07:05:29;16.70;;;10.13;;
39956;SDS011;48483;44.640;7.494;2023-03-01T07:07:56;15.32;;;11.15;;
39956;SDS011;48483;44.640;7.494;2023-03-01T07:10:23;24.25;;;10.52;;
39956;SDS011;48483;44.640;7.494;2023-03-01T07:12:52;19.40;;;9.75;;
39956;SDS011;48483;44.640;7.494;2023-03-01T07:15:20;18.73;;;9.85;;
39956;SDS011;48483;44.640;7.494;2023-03-01T07:17:47;15.45;;;8.55;;
39956;SDS011;48483;44.640;7.494;2023-03-01T07:20:16;27.58;;;9.40;;
39956;SDS011;48483;44.640;7.494;2023-03-01T07:22:43;21.50;;;10.85;;
39956;SDS011;48483;44.640;7.494;2023-03-01T07:25:10;18.25;;;9.52;;
39956;SDS011;48483;44.640;7.494;2023-03-01T07:27:37;26.83;;;10.27;;
39956;SDS011;48483;44.640;7.494;2023-03-01T07:30:05;30.77;;;11.18;;
39956;SDS011;48483;44.640;7.494;2023-03-01T07:32:33;18.80;;;10.48;;
39956;SDS011;48483;44.640;7.494;2023-03-01T07:34:59;17.75;;;11.45;;
39956;SDS011;48483;44.640;7.494;2023-03-01T07:37:26;20.15;;;11.25;;
39956;SDS011;48483;44.640;7.494;2023-03-01T07:39:53;16.00;;;11.15;;
39956;SDS011;48483;44.640;7.494;2023-03-01T07:42:19;19.33;;;12.57;;
39956;SDS011;48483;44.640;7.494;2023-03-01T07:44:46;19.65;;;13.68;;
39956;SDS011;48483;44.640;7.494;2023-03-01T07:47:14;19.83;;;13.23;;
39956;SDS011;48483;44.640;7.494;2023-03-01T07:49:40;17.30;;;11.98;;
39956;SDS011;48483;44.640;7.494;2023-03-01T07:52:09;22.67;;;12.07;;
39956;SDS011;48483;44.640;7.494;2023-03-01T07:54:37;22.40;;;12.07;;
39956;SDS011;48483;44.640;7.494;2023-03-01T07:57:04;18.92;;;12.63;;
39956;SDS011;48483;44.640;7.494;2023-03-01T07:59:31;21.05;;;12.60;;
39956;SDS011;48483;44.640;7.494;2023-03-01T08:01:58;18.63;;;12.93;;
39956;SDS011;48483;44.640;7.494;2023-03-01T08:04:26;21.65;;;13.57;;
39956;SDS011;48483;44.640;7.494;2023-03-01T08:06:53;21.92;;;12.82;;
39956;SDS011;48483;44.640;7.494;2023-03-01T08:09:19;23.63;;;15.57;;
39956;SDS011;48483;44.640;7.494;2023-03-01T08:11:46;31.70;;;18.52;;
39956;SDS011;48483;44.640;7.494;2023-03-01T08:14:12;24.80;;;15.75;;
39956;SDS011;48483;44.640;7.494;2023-03-01T08:16:39;23.15;;;14.18;;
39956;SDS011;48483;44.640;7.494;2023-03-01T08:19:06;25.42;;;15.32;;
39956;SDS011;48483;44.640;7.494;2023-03-01T08:21:34;25.73;;;14.60;;
39956;SDS011;48483;44.640;7.494;2023-03-01T08:24:01;24.00;;;14.38;;
39956;SDS011;48483;44.640;7.494;2023-03-01T08:26:28;20.50;;;13.13;;
39956;SDS011;48483;44.640;7.494;2023-03-01T08:28:56;18.40;;;13.50;;
39956;SDS011;48483;44.640;7.494;2023-03-01T08:31:23;24.02;;;13.43;;
39956;SDS011;48483;44.640;7.494;2023-03-01T08:33:52;22.00;;;13.57;;
39956;SDS011;48483;44.640;7.494;2023-03-01T08:36:24;18.27;;;12.40;;
39956;SDS011;48483;44.640;7.494;2023-03-01T08:38:53;25.65;;;13.38;;
39956;SDS011;48483;44.640;7.494;2023-03-01T08:41:20;29.42;;;15.38;;
39956;SDS011;48483;44.640;7.494;2023-03-01T08:43:46;31.73;;;15.13;;
39956;SDS011;48483;44.640;7.494;2023-03-01T08:46:13;21.13;;;13.80;;
39956;SDS011;48483;44.640;7.494;2023-03-01T08:48:40;22.83;;;13.63;;
39956;SDS011;48483;44.640;7.494;2023-03-01T08:51:09;23.48;;;13.32;;
39956;SDS011;48483;44.640;7.494;2023-03-01T08:53:37;19.73;;;12.82;;
39956;SDS011;48483;44.640;7.494;2023-03-01T08:56:05;22.73;;;13.93;;
39956;SDS011;48483;44.640;7.494;2023-03-01T08:58:32;27.88;;;14.55;;
39956;SDS011;48483;44.640;7.494;2023-03-01T09:00:59;27.45;;;16.38;;
39956;SDS011;48483;44.640;7.494;2023-03-01T09:03:26;30.00;;;18.67;;
39956;SDS011;48483;44.640;7.494;2023-03-01T09:05:53;31.13;;;19.38;;
39956;SDS011;48483;44.640;7.494;2023-03-01T09:08:27;33.78;;;18.05;;
39956;SDS011;48483;44.640;7.494;2023-03-01T09:10:53;25.45;;;17.13;;
39956;SDS011;48483;44.640;7.494;2023-03-01T09:13:21;25.92;;;15.63;;
39956;SDS011;48483;44.640;7.494;2023-03-01T09:15:50;23.23;;;16.33;;
39956;SDS011;48483;44.640;7.494;2023-03-01T09:18:17;26.00;;;16.08;;
39956;SDS011;48483;44.640;7.494;2023-03-01T09:20:44;25.77;;;15.93;;
39956;SDS011;48483;44.640;7.494;2023-03-01T09:23:10;24.65;;;16.55;;
39956;SDS011;48483;44.640;7.494;2023-03-01T09:25:38;24.35;;;14.82;;
39956;SDS011;48483;44.640;7.494;2023-03-01T09:28:05;22.20;;;15.85;;
39956;SDS011;48483;44.640;7.494;2023-03-01T09:30:33;22.10;;;15.27;;
39956;SDS011;48483;44.640;7.494;2023-03-01T09:33:00;22.63;;;14.57;;
39956;SDS011;48483;44.640;7.494;2023-03-01T09:35:26;24.67;;;16.85;;
39956;SDS011;48483;44.640;7.494;2023-03-01T09:37:53;28.23;;;16.35;;
39956;SDS011;48483;44.640;7.494;2023-03-01T09:40:21;27.63;;;16.27;;
39956;SDS011;48483;44.640;7.494;2023-03-01T09:42:53;24.25;;;16.55;;
39956;SDS011;48483;44.640;7.494;2023-03-01T09:45:27;27.08;;;19.10;;
39956;SDS011;48483;44.640;7.494;2023-03-01T09:48:00;24.02;;;17.05;;
39956;SDS011;48483;44.640;7.494;2023-03-01T09:50:28;32.88;;;18.90;;
39956;SDS011;48483;44.640;7.494;2023-03-01T09:53:01;33.92;;;19.40;;
39956;SDS011;48483;44.640;7.494;2023-03-01T09:55:30;27.83;;;18.70;;
39956;SDS011;48483;44.640;7.494;2023-03-01T09:58:00;27.80;;;19.15;;
39956;SDS011;48483;44.640;7.494;2023-03-01T10:00:42;31.17;;;18.00;;
39956;SDS011;48483;44.640;7.494;2023-03-01T10:03:13;34.03;;;22.60;;
39956;SDS011;48483;44.640;7.494;2023-03-01T10:05:53;31.05;;;20.98;;
39956;SDS011;48483;44.640;7.494;2023-03-01T10:08:26;32.35;;;21.23;;
39956;SDS011;48483;44.640;7.494;2023-03-01T10:10:59;33.92;;;21.45;;
39956;SDS011;48483;44.640;7.494;2023-03-01T10:13:27;37.65;;;22.42;;
39956;SDS011;48483;44.640;7.494;2023-03-01T10:16:01;33.45;;;20.90;;
39956;SDS011;48483;44.640;7.494;2023-03-01T10:18:33;29.60;;;21.70;;
39956;SDS011;48483;44.640;7.494;2023-03-01T10:21:03;28.88;;;18.52;;
39956;SDS011;48483;44.640;7.494;2023-03-01T10:23:38;29.45;;;20.15;;
39956;SDS011;48483;44.640;7.494;2023-03-01T10:26:10;32.88;;;20.83;;
39956;SDS011;48483;44.640;7.494;2023-03-01T10:28:46;29.92;;;19.33;;
39956;SDS011;48483;44.640;7.494;2023-03-01T10:31:20;31.23;;;20.17;;
39956;SDS011;48483;44.640;7.494;2023-03-01T10:33:55;36.95;;;21.55;;
39956;SDS011;48483;44.640;7.494;2023-03-01T10:36:23;31.45;;;21.13;;
39956;SDS011;48483;44.640;7.494;2023-03-01T10:38:51;30.80;;;21.05;;
39956;SDS011;48483;44.640;7.494;2023-03-01T10:41:19;29.70;;;22.33;;
39956;SDS011;48483;44.640;7.494;2023-03-01T10:43:51;31.30;;;21.50;;
39956;SDS011;48483;44.640;7.494;2023-03-01T10:46:23;35.60;;;20.98;;
39956;SDS011;48483;44.640;7.494;2023-03-01T10:51:40;30.58;;;22.65;;
39956;SDS011;48483;44.640;7.494;2023-03-01T10:54:15;37.03;;;23.73;;
39956;SDS011;48483;44.640;7.494;2023-03-01T10:56:47;35.00;;;23.13;;
39956;SDS011;48483;44.640;7.494;2023-03-01T10:59:27;35.08;;;24.38;;
39956;SDS011;48483;44.640;7.494;2023-03-01T11:02:03;37.60;;;24.15;;
39956;SDS011;48483;44.640;7.494;2023-03-01T11:04:43;38.97;;;25.27;;
39956;SDS011;48483;44.640;7.494;2023-03-01T11:07:23;35.85;;;23.83;;
39956;SDS011;48483;44.640;7.494;2023-03-01T11:09:49;36.28;;;24.10;;
39956;SDS011;48483;44.640;7.494;2023-03-01T11:12:16;39.25;;;24.27;;
39956;SDS011;48483;44.640;7.494;2023-03-01T11:14:46;30.65;;;22.63;;
39956;SDS011;48483;44.640;7.494;2023-03-01T11:17:15;35.75;;;22.73;;
39956;SDS011;48483;44.640;7.494;2023-03-01T11:19:52;35.22;;;23.08;;
39956;SDS011;48483;44.640;7.494;2023-03-01T11:22:26;34.97;;;23.33;;
39956;SDS011;48483;44.640;7.494;2023-03-01T11:24:54;30.70;;;21.33;;
39956;SDS011;48483;44.640;7.494;2023-03-01T11:27:23;41.35;;;24.25;;
39956;SDS011;48483;44.640;7.494;2023-03-01T11:29:52;35.83;;;23.03;;
39956;SDS011;48483;44.640;7.494;2023-03-01T11:32:23;39.25;;;24.50;;
39956;SDS011;48483;44.640;7.494;2023-03-01T11:37:28;33.92;;;22.15;;
39956;SDS011;48483;44.640;7.494;2023-03-01T11:40:01;35.03;;;22.52;;
39956;SDS011;48483;44.640;7.494;2023-03-01T11:42:40;34.22;;;21.00;;
39956;SDS011;48483;44.640;7.494;2023-03-01T11:45:13;30.85;;;20.88;;
39956;SDS011;48483;44.640;7.494;2023-03-01T11:47:44;34.72;;;22.70;;
39956;SDS011;48483;44.640;7.494;2023-03-01T11:50:27;30.02;;;20.05;;
39956;SDS011;48483;44.640;7.494;2023-03-01T11:53:03;32.58;;;19.70;;
39956;SDS011;48483;44.640;7.494;2023-03-01T11:55:55;28.10;;;19.63;;
39956;SDS011;48483;44.640;7.494;2023-03-01T11:58:41;32.10;;;20.37;;
39956;SDS011;48483;44.640;7.494;2023-03-01T12:01:31;29.83;;;20.48;;
39956;SDS011;48483;44.640;7.494;2023-03-01T12:04:13;29.33;;;20.30;;
39956;SDS011;48483;44.640;7.494;2023-03-01T12:06:59;34.17;;;21.05;;
39956;SDS011;48483;44.640;7.494;2023-03-01T12:09:36;31.38;;;19.75;;
39956;SDS011;48483;44.640;7.494;2023-03-01T12:12:24;32.10;;;21.08;;
39956;SDS011;48483;44.640;7.494;2023-03-01T12:14:57;31.48;;;20.40;;
39956;SDS011;48483;44.640;7.494;2023-03-01T12:17:44;29.90;;;21.13;;
39956;SDS011;48483;44.640;7.494;2023-03-01T12:20:35;29.17;;;19.88;;
39956;SDS011;48483;44.640;7.494;2023-03-01T12:23:16;30.30;;;20.02;;
39956;SDS011;48483;44.640;7.494;2023-03-01T12:25:54;30.73;;;20.17;;
39956;SDS011;48483;44.640;7.494;2023-03-01T12:28:32;31.65;;;18.95;;
39956;SDS011;48483;44.640;7.494;2023-03-01T12:31:29;29.63;;;19.13;;
39956;SDS011;48483;44.640;7.494;2023-03-01T12:37:37;31.15;;;19.80;;
39956;SDS011;48483;44.640;7.494;2023-03-01T12:40:18;33.72;;;20.85;;
39956;SDS011;48483;44.640;7.494;2023-03-01T12:43:03;30.30;;;19.42;;
39956;SDS011;48483;44.640;7.494;2023-03-01T12:45:43;30.77;;;18.95;;
39956;SDS011;48483;44.640;7.494;2023-03-01T12:48:28;26.90;;;19.20;;
39956;SDS011;48483;44.640;7.494;2023-03-01T12:51:04;29.15;;;18.65;;
39956;SDS011;48483;44.640;7.494;2023-03-01T12:53:36;23.85;;;17.77;;
39956;SDS011;48483;44.640;7.494;2023-03-01T12:56:09;26.17;;;16.90;;
39956;SDS011;48483;44.640;7.494;2023-03-01T13:01:14;28.05;;;18.13;;
39956;SDS011;48483;44.640;7.494;2023-03-01T13:04:06;26.23;;;18.15;;
39956;SDS011;48483;44.640;7.494;2023-03-01T13:06:48;26.17;;;17.50;;
39956;SDS011;48483;44.640;7.494;2023-03-01T13:09:29;25.30;;;18.88;;
39956;SDS011;48483;44.640;7.494;2023-03-01T13:12:14;24.65;;;17.15;;
39956;SDS011;48483;44.640;7.494;2023-03-01T13:15:26;27.83;;;16.88;;
39956;SDS011;48483;44.640;7.494;2023-03-01T13:17:55;23.17;;;16.52;;
39956;SDS011;48483;44.640;7.494;2023-03-01T13:20:23;25.02;;;16.33;;
39956;SDS011;48483;44.640;7.494;2023-03-01T13:23:00;25.25;;;15.27;;
39956;SDS011;48483;44.640;7.494;2023-03-01T13:25:28;26.25;;;15.02;;
39956;SDS011;48483;44.640;7.494;2023-03-01T13:28:35;26.05;;;15.18;;
39956;SDS011;48483;44.640;7.494;2023-03-01T13:31:10;22.63;;;15.40;;
39956;SDS011;48483;44.640;7.494;2023-03-01T13:34:12;25.08;;;15.50;;
39956;SDS011;48483;44.640;7.494;2023-03-01T13:37:10;22.52;;;15.80;;
39956;SDS011;48483;44.640;7.494;2023-03-01T13:39:48;24.48;;;15.38;;
39956;SDS011;48483;44.640;7.494;2023-03-01T13:42:35;24.17;;;15.63;;
39956;SDS011;48483;44.640;7.494;2023-03-01T13:45:15;26.35;;;16.33;;
39956;SDS011;48483;44.640;7.494;2023-03-01T13:47:45;24.08;;;15.98;;
39956;SDS011;48483;44.640;7.494;2023-03-01T13:50:18;16.97;;;11.87;;
39956;SDS011;48483;44.640;7.494;2023-03-01T13:52:48;22.00;;;14.90;;
39956;SDS011;48483;44.640;7.494;2023-03-01T13:55:20;24.55;;;16.60;;
39956;SDS011;48483;44.640;7.494;2023-03-01T13:57:51;22.92;;;15.80;;
39956;SDS011;48483;44.640;7.494;2023-03-01T14:00:29;20.30;;;14.68;;
39956;SDS011;48483;44.640;7.494;2023-03-01T14:03:10;21.58;;;14.77;;
39956;SDS011;48483;44.640;7.494;2023-03-01T14:05:40;23.17;;;14.45;;
39956;SDS011;48483;44.640;7.494;2023-03-01T14:08:18;24.35;;;13.60;;
39956;SDS011;48483;44.640;7.494;2023-03-01T14:10:53;27.77;;;14.35;;
39956;SDS011;48483;44.640;7.494;2023-03-01T14:13:33;17.40;;;12.73;;
39956;SDS011;48483;44.640;7.494;2023-03-01T14:16:15;21.33;;;13.13;;
39956;SDS011;48483;44.640;7.494;2023-03-01T14:21:24;17.00;;;12.13;;
39956;SDS011;48483;44.640;7.494;2023-03-01T14:23:52;15.00;;;11.98;;
39956;SDS011;48483;44.640;7.494;2023-03-01T14:26:20;18.73;;;13.88;;
39956;SDS011;48483;44.640;7.494;2023-03-01T14:28:47;20.50;;;13.27;;
39956;SDS011;48483;44.640;7.494;2023-03-01T14:31:29;25.98;;;13.77;;
39956;SDS011;48483;44.640;7.494;2023-03-01T14:34:00;20.40;;;13.80;;
39956;SDS011;48483;44.640;7.494;2023-03-01T14:36:29;20.42;;;13.70;;
39956;SDS011;48483;44.640;7.494;2023-03-01T14:38:56;24.70;;;14.97;;
39956;SDS011;48483;44.640;7.494;2023-03-01T14:41:31;20.40;;;14.80;;
39956;SDS011;48483;44.640;7.494;2023-03-01T14:44:01;25.70;;;15.93;;
39956;SDS011;48483;44.640;7.494;2023-03-01T14:46:32;21.50;;;12.05;;
39956;SDS011;48483;44.640;7.494;2023-03-01T14:49:01;24.55;;;14.40;;
39956;SDS011;48483;44.640;7.494;2023-03-01T14:51:31;22.45;;;14.40;;
39956;SDS011;48483;44.640;7.494;2023-03-01T14:54:02;23.88;;;16.02;;
39956;SDS011;48483;44.640;7.494;2023-03-01T14:56:29;26.48;;;16.33;;
39956;SDS011;48483;44.640;7.494;2023-03-01T15:01:36;20.70;;;13.20;;